Time;durP1;ratioP1;P1;durP2;ratioP2;P2;SDS_P1;SDS_P2;PMS_P1;PMS_P2;Temp;Humidity;BMP_temperature;BMP_pressure;BME280_temperature;BME280_humidity;BME280_pressure;Samples;Min_cycle;Max_cycle;Signal;HPM_P1;HPM_P2
2022/10/29 00:00:51;;;;;;;0.10;0.10;;;9.90;99.90;;;;;;4713851;30;20033;-77
2022/10/29 00:03:17;;;;;;;0.10;0.10;;;9.90;99.90;;;;;;4705305;30;20029;-77
2022/10/29 00:05:43;;;;;;;0.13;0.13;;;11.40;99.90;;;;;;4714699;30;20025;-77
2022/10/29 00:08:09;;;;;;;0.55;0.55;;;9.80;99.90;;;;;;4715397;30;20036;-77
2022/10/29 00:10:35;;;;;;;0.40;0.40;;;9.90;99.90;;;;;;4721692;30;20037;-77
2022/10/29 00:13:01;;;;;;;0.10;0.10;;;9.80;99.90;;;;;;4719733;30;20469;-77
2022/10/29 00:15:28;;;;;;;0.10;0.10;;;7.30;99.90;;;;;;4719133;30;20033;-76
2022/10/29 00:17:53;;;;;;;0.13;0.13;;;9.70;99.90;;;;;;4717318;30;20041;-77
2022/10/29 00:20:20;;;;;;;0.20;0.20;;;9.60;99.90;;;;;;4717726;30;20107;-79
2022/10/29 00:22:46;;;;;;;0.10;0.10;;;9.50;99.90;;;;;;4704417;30;20033;-76
2022/10/29 00:25:12;;;;;;;0.08;0.08;;;9.50;99.90;;;;;;4716312;30;20029;-77
2022/10/29 00:27:38;;;;;;;0.00;0.00;;;9.40;99.90;;;;;;4716484;30;20056;-77
2022/10/29 00:30:04;;;;;;;0.00;0.00;;;9.40;99.90;;;;;;4717161;30;20434;-77
2022/10/29 00:32:30;;;;;;;0.00;0.00;;;9.30;99.90;;;;;;4717945;30;20017;-77
2022/10/29 00:35:15;;;;;;;0.00;0.00;;;9.20;99.90;;;;;;4717863;30;20553;-77
2022/10/29 00:37:41;;;;;;;0.00;0.00;;;9.20;99.90;;;;;;4716365;30;20101;-77
2022/10/29 00:40:08;;;;;;;0.00;0.00;;;9.20;99.90;;;;;;4716052;30;20029;-77
2022/10/29 00:42:33;;;;;;;0.10;0.10;;;9.20;99.90;;;;;;4717724;30;20033;-77
2022/10/29 00:44:59;;;;;;;0.43;0.43;;;9.10;99.90;;;;;;4718874;30;20034;-77
2022/10/29 00:47:41;;;;;;;0.10;0.10;;;9.00;99.90;;;;;;4704052;30;20047;-77
2022/10/29 00:50:10;;;;;;;4.43;4.22;;;9.10;99.90;;;;;;4721319;30;20029;-77
2022/10/29 00:52:44;;;;;;;20.23;19.00;;;9.10;99.90;;;;;;4717942;30;20033;-76
2022/10/29 00:55:14;;;;;;;0.10;0.10;;;9.10;99.90;;;;;;4714496;30;20036;-77
2022/10/29 00:57:47;;;;;;;2.67;2.58;;;9.10;99.90;;;;;;4718012;30;20029;-77
2022/10/29 01:00:14;;;;;;;0.00;0.00;;;9.10;99.90;;;;;;4719574;30;20095;-76
2022/10/29 01:02:42;;;;;;;0.10;0.10;;;9.10;99.90;;;;;;4699368;30;20064;-76
2022/10/29 01:05:11;;;;;;;1.45;1.42;;;9.10;99.90;;;;;;4718074;30;20441;-76
2022/10/29 01:07:39;;;;;;;0.57;0.57;;;9.00;99.90;;;;;;4717292;30;20057;-76
2022/10/29 01:10:06;;;;;;;0.00;0.00;;;9.00;99.90;;;;;;4717221;30;20079;-76
2022/10/29 01:12:34;;;;;;;0.10;0.10;;;9.00;99.90;;;;;;4716339;30;20331;-77
2022/10/29 01:15:06;;;;;;;0.10;0.10;;;8.90;99.90;;;;;;4701539;30;20538;-75
2022/10/29 01:17:50;;;;;;;5.43;3.45;;;8.90;99.90;;;;;;4717932;30;20042;-76
2022/10/29 01:20:43;;;;;;;0.10;0.10;;;8.80;99.90;;;;;;4717406;30;20030;-78
2022/10/29 01:23:30;;;;;;;5.40;5.20;;;8.80;99.90;;;;;;4718292;30;20029;-77
2022/10/29 01:26:37;;;;;;;0.10;0.10;;;8.80;99.90;;;;;;4718708;30;20061;-76
2022/10/29 01:29:51;;;;;;;0.00;0.00;;;8.70;99.90;;;;;;4716747;30;20269;-77
2022/10/29 01:32:29;;;;;;;0.10;0.10;;;8.70;99.90;;;;;;4700849;30;20072;-77
2022/10/29 01:34:59;;;;;;;0.10;0.10;;;8.70;99.90;;;;;;4715799;30;20365;-76
2022/10/29 01:38:09;;;;;;;0.00;0.00;;;8.10;99.90;;;;;;4718613;30;20092;-78
2022/10/29 01:40:54;;;;;;;0.08;0.08;;;8.70;99.90;;;;;;4730938;30;20088;-79
2022/10/29 01:43:24;;;;;;;0.08;0.08;;;8.60;99.90;;;;;;4733122;30;20326;-77
2022/10/29 01:46:07;;;;;;;0.00;0.00;;;8.60;99.90;;;;;;4735312;30;20048;-76
2022/10/29 01:48:36;;;;;;;0.10;0.10;;;8.60;99.90;;;;;;4732345;30;20045;-77
2022/10/29 01:51:21;;;;;;;0.00;0.00;;;8.50;99.90;;;;;;4732499;30;20037;-77
2022/10/29 01:53:47;;;;;;;0.00;0.00;;;8.50;99.90;;;;;;4729126;30;20060;-78
2022/10/29 01:56:13;;;;;;;0.00;0.00;;;8.50;99.90;;;;;;4729201;30;20045;-78
2022/10/29 01:58:41;;;;;;;0.00;0.00;;;8.40;99.90;;;;;;4729127;30;20059;-78
2022/10/29 02:01:09;;;;;;;0.10;0.10;;;8.40;99.90;;;;;;4731183;30;20016;-78
2022/10/29 02:04:11;;;;;;;0.10;0.10;;;8.40;99.90;;;;;;4732137;30;20505;-77
2022/10/29 02:06:59;;;;;;;0.00;0.00;;;8.30;99.90;;;;;;4663607;30;20127;-78
2022/10/29 02:09:42;;;;;;;0.20;0.20;;;8.30;99.90;;;;;;4667955;30;20054;-77
2022/10/29 02:12:32;;;;;;;0.00;0.00;;;8.20;99.90;;;;;;4662783;30;20054;-76
2022/10/29 02:15:07;;;;;;;0.10;0.10;;;8.20;99.90;;;;;;4669356;30;20052;-77
2022/10/29 02:25:19;;;;;;;0.00;0.00;;;8.10;99.90;;;;;;5460880;24;20394;-77
2022/10/29 02:27:54;;;;;;;0.00;0.00;;;8.10;99.90;;;;;;4699974;30;20092;-77
2022/10/29 02:30:19;;;;;;;0.95;0.95;;;8.10;99.90;;;;;;4684247;30;20419;-77
2022/10/29 02:32:47;;;;;;;2.30;2.20;;;8.10;99.90;;;;;;4699198;30;20030;-78
2022/10/29 02:35:13;;;;;;;0.05;0.05;;;8.10;99.90;;;;;;4701065;30;20055;-77
2022/10/29 02:37:41;;;;;;;0.08;0.08;;;8.10;99.90;;;;;;4700183;30;20034;-77
2022/10/29 02:40:13;;;;;;;0.00;0.00;;;8.00;99.90;;;;;;4704985;30;20029;-78
2022/10/29 02:42:38;;;;;;;0.10;0.10;;;8.00;99.90;;;;;;4722149;30;20068;-78
2022/10/29 02:45:04;;;;;;;0.10;0.10;;;7.90;99.90;;;;;;4721549;30;20020;-78
2022/10/29 02:47:30;;;;;;;0.05;0.05;;;8.00;99.90;;;;;;4722708;30;20017;-79
2022/10/29 02:49:56;;;;;;;0.00;0.00;;;8.00;99.90;;;;;;4722807;30;20017;-83
2022/10/29 02:52:22;;;;;;;0.10;0.10;;;7.90;99.90;;;;;;4715738;30;20026;-75
2022/10/29 02:54:47;;;;;;;0.05;0.05;;;7.90;99.90;;;;;;4720968;30;20013;-77
2022/10/29 02:57:13;;;;;;;0.10;0.10;;;7.90;99.90;;;;;;4704527;30;20033;-77
2022/10/29 02:59:39;;;;;;;0.10;0.10;;;7.90;99.90;;;;;;4691902;30;20041;-77
2022/10/29 03:02:05;;;;;;;0.00;0.00;;;7.90;99.90;;;;;;4707863;30;20176;-77
2022/10/29 03:04:30;;;;;;;0.30;0.30;;;7.90;99.90;;;;;;4708130;30;20029;-77
2022/10/29 03:07:00;;;;;;;0.00;0.00;;;7.90;99.90;;;;;;4709131;30;20033;-77
2022/10/29 03:09:26;;;;;;;3.22;3.03;;;7.90;99.90;;;;;;4707190;30;20089;-77
2022/10/29 03:11:52;;;;;;;0.10;0.10;;;7.90;99.90;;;;;;4687075;30;20104;-77
2022/10/29 03:14:18;;;;;;;0.00;0.00;;;7.90;99.90;;;;;;4701517;30;20263;-77
2022/10/29 03:16:43;;;;;;;0.10;0.10;;;7.80;99.90;;;;;;4701200;30;20040;-77
2022/10/29 03:19:09;;;;;;;0.10;0.10;;;7.90;99.90;;;;;;4690747;30;20034;-77
2022/10/29 03:21:38;;;;;;;0.10;0.10;;;7.80;99.90;;;;;;4706308;30;20071;-77
2022/10/29 03:24:04;;;;;;;0.10;0.10;;;7.80;99.90;;;;;;4704630;30;20013;-77
2022/10/29 03:26:38;;;;;;;0.10;0.10;;;7.90;99.90;;;;;;4716707;30;20072;-77
2022/10/29 03:40:18;;;;;;;0.10;0.10;;;7.70;99.90;;;;;;5712383;24;20017;31
2022/10/29 03:42:44;;;;;;;0.00;0.00;;;7.80;99.90;;;;;;4676094;30;20078;-78
2022/10/29 03:45:10;;;;;;;0.00;0.00;;;7.70;99.90;;;;;;4664995;30;20285;-77
2022/10/29 03:47:37;;;;;;;0.00;0.00;;;7.70;99.90;;;;;;4669921;30;20078;-78
2022/10/29 03:50:04;;;;;;;0.00;0.00;;;7.70;99.90;;;;;;4666007;30;20058;-76
2022/10/29 03:52:30;;;;;;;0.00;0.00;;;7.70;99.90;;;;;;4667639;30;20026;-85
2022/10/29 03:54:55;;;;;;;0.10;0.10;;;7.70;99.90;;;;;;4669923;30;20052;-77
2022/10/29 03:57:21;;;;;;;0.03;0.03;;;7.70;99.90;;;;;;4667858;30;20455;-76
2022/10/29 03:59:47;;;;;;;0.00;0.00;;;7.60;99.90;;;;;;4667514;30;20029;-77
2022/10/29 04:02:13;;;;;;;0.00;0.00;;;7.50;99.90;;;;;;4670374;30;20038;-77
2022/10/29 04:04:38;;;;;;;0.10;0.10;;;7.50;99.90;;;;;;4670197;30;20340;-77
2022/10/29 04:07:05;;;;;;;0.00;0.00;;;7.60;99.90;;;;;;4672140;30;20043;-77
2022/10/29 04:09:30;;;;;;;0.10;0.10;;;7.50;99.90;;;;;;4668791;30;20023;-77
2022/10/29 04:11:57;;;;;;;0.00;0.00;;;7.50;99.90;;;;;;4668016;30;20066;-77
2022/10/29 04:14:24;;;;;;;9.27;8.82;;;7.50;99.90;;;;;;4667501;30;20043;-77
2022/10/29 04:16:50;;;;;;;0.10;0.10;;;7.50;99.90;;;;;;4668437;30;20255;-76
2022/10/29 04:19:16;;;;;;;0.00;0.00;;;7.40;99.90;;;;;;4667249;30;20038;-83
2022/10/29 04:21:43;;;;;;;0.03;0.03;;;7.40;99.90;;;;;;4683426;30;20038;-82
2022/10/29 04:24:08;;;;;;;0.00;0.00;;;7.40;99.90;;;;;;4663710;30;20038;-78
2022/10/29 04:26:34;;;;;;;0.10;0.10;;;7.30;99.90;;;;;;4664103;30;20053;-79
2022/10/29 04:29:00;;;;;;;0.03;0.03;;;7.20;99.90;;;;;;4664917;30;20045;-77
2022/10/29 04:31:26;;;;;;;0.00;0.00;;;7.20;99.90;;;;;;4666273;30;20042;-79
2022/10/29 04:33:55;;;;;;;0.08;0.08;;;7.20;99.90;;;;;;4669144;30;20083;-76
2022/10/29 04:36:22;;;;;;;0.00;0.00;;;7.20;99.90;;;;;;4668077;30;20089;-77
2022/10/29 04:38:49;;;;;;;0.20;0.20;;;7.10;99.90;;;;;;4668029;30;20102;-77
2022/10/29 04:41:15;;;;;;;0.10;0.10;;;7.10;99.90;;;;;;4674816;30;20283;-77
2022/10/29 04:43:40;;;;;;;0.00;0.00;;;7.20;99.90;;;;;;4685284;30;20048;-77
2022/10/29 04:46:06;;;;;;;0.10;0.10;;;7.10;99.90;;;;;;4670802;30;20040;-77
2022/10/29 04:48:32;;;;;;;0.10;0.10;;;7.10;99.90;;;;;;4687229;30;20073;-77
2022/10/29 04:50:57;;;;;;;0.13;0.13;;;7.10;99.90;;;;;;4687485;30;20038;-77
2022/10/29 04:53:23;;;;;;;0.28;0.28;;;7.00;99.90;;;;;;4687998;30;20104;-76
2022/10/29 04:55:49;;;;;;;1.35;1.35;;;7.10;99.90;;;;;;4669322;30;20053;-76
2022/10/29 04:58:20;;;;;;;0.00;0.00;;;7.00;99.90;;;;;;4688184;30;20294;-78
2022/10/29 05:00:46;;;;;;;0.00;0.00;;;7.00;99.90;;;;;;4687832;30;20096;-77
2022/10/29 05:03:12;;;;;;;0.00;0.00;;;6.90;99.90;;;;;;4673631;30;20034;-77
2022/10/29 05:05:39;;;;;;;0.00;0.00;;;6.90;99.90;;;;;;4688267;30;20026;-77
2022/10/29 05:08:06;;;;;;;0.00;0.00;;;6.90;99.90;;;;;;4688197;30;20042;-78
2022/10/29 05:10:34;;;;;;;0.00;0.00;;;6.90;99.90;;;;;;4675612;30;20405;-77
2022/10/29 05:13:02;;;;;;;0.10;0.10;;;6.90;99.90;;;;;;4681944;30;20121;-77
2022/10/29 05:15:29;;;;;;;0.00;0.00;;;6.90;99.90;;;;;;4679094;30;20042;-77
2022/10/29 05:17:56;;;;;;;0.00;0.00;;;6.90;99.90;;;;;;4682544;30;20026;-76
2022/10/29 05:20:28;;;;;;;0.00;0.00;;;6.80;99.90;;;;;;4682505;30;20030;-77
2022/10/29 05:23:03;;;;;;;0.00;0.00;;;6.80;99.90;;;;;;4682429;30;20491;-77
2022/10/29 05:25:31;;;;;;;0.00;0.00;;;6.90;99.90;;;;;;4685235;30;20049;-76
2022/10/29 05:28:14;;;;;;;0.35;0.35;;;6.90;99.90;;;;;;4692827;30;20518;-78
2022/10/29 05:30:42;;;;;;;0.00;0.00;;;6.80;99.90;;;;;;4696949;30;20030;-78
2022/10/29 05:33:09;;;;;;;0.00;0.00;;;6.80;99.90;;;;;;4689957;30;20026;-77
2022/10/29 05:35:38;;;;;;;0.00;0.00;;;6.80;99.90;;;;;;4692697;30;20034;-77
2022/10/29 05:38:05;;;;;;;0.10;0.10;;;6.80;99.90;;;;;;4689604;30;20045;-77
2022/10/29 05:40:32;;;;;;;0.00;0.00;;;6.90;99.90;;;;;;4688783;30;20100;-78
2022/10/29 05:42:58;;;;;;;0.65;0.65;;;6.80;99.90;;;;;;4678635;30;20044;-78
2022/10/29 05:45:24;;;;;;;0.10;0.10;;;6.80;99.90;;;;;;4676583;30;20067;-78
2022/10/29 05:48:01;;;;;;;3.17;3.08;;;6.80;99.90;;;;;;4675433;30;20022;-76
2022/10/29 05:50:31;;;;;;;0.00;0.00;;;6.80;99.90;;;;;;4676548;30;20038;-77
2022/10/29 05:53:08;;;;;;;0.08;0.08;;;6.80;99.90;;;;;;4677342;30;20070;-77
2022/10/29 05:55:35;;;;;;;0.10;0.10;;;6.80;99.90;;;;;;4676051;30;20443;-78
2022/10/29 05:58:04;;;;;;;0.10;0.10;;;6.90;99.90;;;;;;4659354;30;20058;-77
2022/10/29 06:00:33;;;;;;;0.15;0.15;;;7.00;99.90;;;;;;4671609;30;20249;-77
2022/10/29 06:02:59;;;;;;;0.05;0.05;;;7.00;99.90;;;;;;4671491;30;20026;-77
2022/10/29 06:05:25;;;;;;;0.15;0.15;;;7.00;99.90;;;;;;4671581;30;20487;-77
2022/10/29 06:07:58;;;;;;;0.00;0.00;;;6.90;99.90;;;;;;4673067;30;20310;-79
2022/10/29 06:10:27;;;;;;;0.00;0.00;;;6.90;99.90;;;;;;4672444;30;20247;-77
2022/10/29 06:12:54;;;;;;;0.30;0.30;;;6.90;99.90;;;;;;4678352;30;20077;-77
2022/10/29 06:15:20;;;;;;;0.00;0.00;;;7.00;99.90;;;;;;4685176;30;20472;-77
2022/10/29 06:17:46;;;;;;;0.00;0.00;;;7.00;99.90;;;;;;4683055;30;20495;-77
2022/10/29 06:20:15;;;;;;;0.00;0.00;;;7.20;99.90;;;;;;4681448;30;20041;-77
2022/10/29 06:22:42;;;;;;;3.20;3.10;;;7.10;99.90;;;;;;4681296;30;20089;-77
2022/10/29 06:25:08;;;;;;;0.00;0.00;;;8.30;99.90;;;;;;4683346;30;20029;-77
2022/10/29 06:27:34;;;;;;;0.00;0.00;;;7.30;99.90;;;;;;4678039;30;20069;-77
2022/10/29 06:37:47;;;;;;;0.00;0.00;;;7.50;99.90;;;;;;5718578;24;20004;-76
2022/10/29 06:43:10;;;;;;;0.00;0.00;;;7.80;99.90;;;;;;4717620;24;20095;-77
2022/10/29 06:57:43;;;;;;;0.00;0.00;;;8.20;99.90;;;;;;4691327;30;20092;-77
2022/10/29 07:00:09;;;;;;;0.00;0.00;;;8.20;99.90;;;;;;4706548;30;20483;-78
2022/10/29 07:02:35;;;;;;;0.00;0.00;;;8.30;99.90;;;;;;4692565;30;20597;-78
2022/10/29 07:05:00;;;;;;;0.00;0.00;;;8.30;99.90;;;;;;4696842;30;20219;-77
2022/10/29 07:07:27;;;;;;;0.10;0.10;;;8.50;99.90;;;;;;4710291;30;20106;-78
2022/10/29 07:09:53;;;;;;;0.10;0.10;;;8.50;99.90;;;;;;4695944;30;20254;-77
2022/10/29 07:12:19;;;;;;;0.10;0.10;;;8.60;99.90;;;;;;4708375;30;20136;-77
2022/10/29 07:14:44;;;;;;;0.10;0.10;;;8.70;99.90;;;;;;4692338;30;20667;-77
2022/10/29 07:17:10;;;;;;;0.10;0.10;;;8.80;99.90;;;;;;4692729;30;20132;-77
2022/10/29 07:19:36;;;;;;;0.00;0.00;;;8.90;99.90;;;;;;4704787;30;20034;-77
2022/10/29 07:22:02;;;;;;;0.32;0.32;;;9.10;99.90;;;;;;4695621;30;20038;-77
2022/10/29 07:24:30;;;;;;;1.88;1.85;;;7.50;99.90;;;;;;4693817;30;20465;-77
2022/10/29 07:26:56;;;;;;;0.20;0.20;;;9.40;99.90;;;;;;4694779;30;20033;-77
2022/10/29 07:29:22;;;;;;;0.00;0.00;;;9.60;99.90;;;;;;4709047;30;20056;-78
2022/10/29 07:31:47;;;;;;;0.10;0.10;;;9.70;99.90;;;;;;4713605;30;20040;-77
2022/10/29 07:34:13;;;;;;;0.05;0.05;;;9.90;99.90;;;;;;4715200;30;20041;-78
2022/10/29 07:36:39;;;;;;;0.10;0.10;;;9.90;99.90;;;;;;4715656;30;20061;-77
2022/10/29 07:39:06;;;;;;;0.20;0.20;;;9.90;99.90;;;;;;4711438;30;20040;-78
2022/10/29 07:41:32;;;;;;;0.40;0.40;;;10.20;99.90;;;;;;4708585;30;20101;-77
2022/10/29 07:43:59;;;;;;;0.10;0.10;;;10.30;99.90;;;;;;4709806;30;20603;-78
2022/10/29 07:46:24;;;;;;;0.13;0.13;;;10.40;99.90;;;;;;4712515;30;20059;-77
2022/10/29 07:48:50;;;;;;;0.75;0.75;;;10.50;99.90;;;;;;4711698;30;20515;-78
2022/10/29 07:51:19;;;;;;;6.15;5.78;;;10.70;99.90;;;;;;4708741;30;20322;-77
2022/10/29 07:53:52;;;;;;;0.20;0.20;;;10.80;99.90;;;;;;4708675;30;20103;-77
2022/10/29 07:56:22;;;;;;;0.35;0.35;;;11.00;99.90;;;;;;4714203;30;20053;-76
2022/10/29 08:30:19;;;;;;;1.02;1.02;;;12.40;99.90;;;;;;4756205;24;20333;-84
2022/10/29 08:32:46;;;;;;;7.32;6.85;;;12.50;99.90;;;;;;4721784;30;20028;-76
2022/10/29 08:35:12;;;;;;;4.22;3.90;;;12.70;99.90;;;;;;4722554;30;20651;-79
2022/10/29 08:37:44;;;;;;;5.03;4.78;;;12.80;99.90;;;;;;4724366;30;20040;-79
2022/10/29 08:40:16;;;;;;;0.20;0.20;;;14.40;99.90;;;;;;4723062;30;20139;-77
2022/10/29 08:43:16;;;;;;;7.53;6.55;;;13.10;99.90;;;;;;4724454;30;20414;-89
2022/10/29 08:45:48;;;;;;;5.75;5.47;;;13.40;99.90;;;;;;4722353;30;20057;-78
2022/10/29 08:48:32;;;;;;;0.65;0.65;;;13.50;99.90;;;;;;4722442;30;20025;-81
2022/10/29 08:51:09;;;;;;;0.15;0.15;;;13.60;99.90;;;;;;4722351;30;20129;-81
2022/10/29 08:53:50;;;;;;;2.08;2.00;;;13.70;99.90;;;;;;4721664;30;20650;-81
2022/10/29 08:56:26;;;;;;;1.00;1.00;;;13.90;99.90;;;;;;4721801;30;20047;-77
2022/10/29 08:59:09;;;;;;;3.80;3.50;;;14.10;99.90;;;;;;4721853;30;20064;-85
2022/10/29 09:01:36;;;;;;;0.10;0.10;;;14.20;99.90;;;;;;4708641;30;20162;-82
2022/10/29 09:04:14;;;;;;;0.28;0.28;;;14.40;99.90;;;;;;4723132;30;20410;-83
2022/10/29 09:07:14;;;;;;;0.10;0.10;;;14.60;99.90;;;;;;4722804;30;20032;-78
2022/10/29 09:09:48;;;;;;;0.13;0.13;;;14.80;99.90;;;;;;4723030;30;20104;-78
2022/10/29 09:12:55;;;;;;;0.43;0.43;;;15.00;99.90;;;;;;4706585;30;20448;-79
2022/10/29 09:15:42;;;;;;;0.30;0.30;;;15.70;99.90;;;;;;4719101;30;20055;-81
2022/10/29 09:18:41;;;;;;;0.10;0.10;;;14.90;99.90;;;;;;4719305;30;20190;-78
2022/10/29 09:21:31;;;;;;;0.68;0.68;;;15.00;99.90;;;;;;4719716;30;20119;-86
2022/10/29 09:23:59;;;;;;;2.55;2.40;;;15.10;99.90;;;;;;4719274;30;20552;-80
2022/10/29 09:26:35;;;;;;;0.50;0.50;;;15.10;99.90;;;;;;4720178;30;20045;-79
2022/10/29 09:29:31;;;;;;;0.98;0.98;;;15.40;99.90;;;;;;4722565;30;20067;-92
2022/10/29 09:32:09;;;;;;;0.45;0.45;;;15.40;99.90;;;;;;4718463;30;20155;-78
2022/10/29 09:34:48;;;;;;;1.92;1.77;;;15.60;99.90;;;;;;4718797;30;20063;-77
2022/10/29 09:37:19;;;;;;;0.95;0.95;;;15.80;99.90;;;;;;4718925;30;20213;-76
2022/10/29 09:39:49;;;;;;;0.22;0.22;;;15.90;99.90;;;;;;4719713;30;20041;-76
2022/10/29 09:42:35;;;;;;;0.10;0.10;;;15.80;99.90;;;;;;4707255;30;20029;-80
2022/10/29 09:45:08;;;;;;;1.58;1.48;;;16.00;99.90;;;;;;4719915;30;20048;-78
2022/10/29 09:47:45;;;;;;;8.43;3.67;;;16.10;99.90;;;;;;4720308;30;20063;-83
2022/10/29 09:50:34;;;;;;;3.78;3.60;;;16.20;99.90;;;;;;4719201;30;20040;-79
2022/10/29 09:53:01;;;;;;;0.30;0.30;;;16.40;99.90;;;;;;4706778;30;20043;-85
2022/10/29 09:55:42;;;;;;;0.50;0.50;;;16.50;99.90;;;;;;4704041;30;20037;-81
2022/10/29 09:58:28;;;;;;;0.10;0.10;;;16.60;99.90;;;;;;4703691;30;20029;-83
2022/10/29 10:00:56;;;;;;;0.20;0.20;;;16.60;99.90;;;;;;4703355;30;20531;-77
2022/10/29 10:03:44;;;;;;;0.30;0.30;;;16.80;99.90;;;;;;4687814;30;20548;-80
2022/10/29 10:06:12;;;;;;;6.63;2.63;;;17.00;99.90;;;;;;4703686;30;20309;-80
2022/10/29 10:09:03;;;;;;;4.45;4.07;;;18.10;99.90;;;;;;4704288;30;20040;-85
2022/10/29 10:11:41;;;;;;;1.10;1.08;;;17.00;99.90;;;;;;4704033;30;20033;-82
2022/10/29 10:14:23;;;;;;;0.20;0.20;;;17.20;99.90;;;;;;4703762;30;20021;-82
2022/10/29 10:16:57;;;;;;;0.20;0.20;;;17.40;99.90;;;;;;4703428;30;20517;-92
2022/10/29 10:19:26;;;;;;;0.40;0.40;;;17.60;99.90;;;;;;4702950;30;20223;-82
2022/10/29 10:22:04;;;;;;;0.57;0.57;;;17.90;99.70;;;;;;4714188;30;20298;-81
2022/10/29 10:24:33;;;;;;;0.10;0.10;;;18.00;99.10;;;;;;4690808;30;20040;-76
2022/10/29 10:27:16;;;;;;;0.10;0.10;;;18.20;99.00;;;;;;4706362;30;20067;-76
2022/10/29 10:29:42;;;;;;;0.30;0.30;;;18.20;98.70;;;;;;4702950;30;20638;-79
2022/10/29 10:32:15;;;;;;;0.10;0.10;;;18.40;98.50;;;;;;4703504;30;20053;-78
2022/10/29 10:34:41;;;;;;;0.10;0.10;;;18.60;97.60;;;;;;4703409;30;20036;-78
2022/10/29 10:37:13;;;;;;;0.45;0.45;;;18.80;97.90;;;;;;4703415;30;20497;-81
2022/10/29 10:39:53;;;;;;;0.10;0.10;;;18.90;97.30;;;;;;4703408;30;20105;-84
2022/10/29 10:42:45;;;;;;;2.08;1.38;;;19.00;96.20;;;;;;4703586;30;20368;-81
2022/10/29 10:45:15;;;;;;;0.20;0.20;;;19.30;96.00;;;;;;4687197;30;20045;-82
2022/10/29 10:47:46;;;;;;;0.10;0.10;;;19.30;95.40;;;;;;4703324;30;20033;-83
2022/10/29 10:50:21;;;;;;;0.45;0.45;;;19.40;95.30;;;;;;4687695;30;20079;-84
2022/10/29 10:52:48;;;;;;;0.90;0.90;;;19.60;95.30;;;;;;4702973;30;20026;-86
2022/10/29 10:55:33;;;;;;;0.65;0.65;;;19.70;94.80;;;;;;4704591;30;20118;-83
2022/10/29 10:58:33;;;;;;;0.40;0.40;;;19.50;94.60;;;;;;4706568;30;20326;-77
2022/10/29 11:01:07;;;;;;;0.20;0.20;;;19.60;94.80;;;;;;4721219;30;20103;-85
2022/10/29 11:03:47;;;;;;;2.38;2.17;;;19.70;94.40;;;;;;4721109;30;20592;-93
2022/10/29 11:06:30;;;;;;;0.17;0.17;;;19.80;94.80;;;;;;4720976;30;20045;-83
2022/10/29 11:09:08;;;;;;;0.30;0.30;;;19.90;94.20;;;;;;4721027;30;20032;-77
2022/10/29 11:11:44;;;;;;;0.55;0.55;;;20.10;94.00;;;;;;4721414;30;20514;-86
2022/10/29 11:14:16;;;;;;;0.55;0.55;;;20.30;92.90;;;;;;4721389;30;20032;-80
2022/10/29 11:16:50;;;;;;;0.28;0.28;;;20.40;92.40;;;;;;4721369;30;20582;-76
2022/10/29 11:19:28;;;;;;;0.30;0.30;;;20.30;92.20;;;;;;4720677;30;20516;-88
2022/10/29 11:22:21;;;;;;;0.20;0.20;;;20.50;92.30;;;;;;4721191;30;20036;-77
2022/10/29 11:24:54;;;;;;;1.70;1.60;;;20.50;91.40;;;;;;4721458;30;20064;-80
2022/10/29 11:27:29;;;;;;;0.85;0.85;;;20.80;91.70;;;;;;4721125;30;20075;-78
2022/10/29 11:30:05;;;;;;;2.17;2.08;;;20.90;90.80;;;;;;4720377;30;20055;-88
2022/10/29 11:32:46;;;;;;;0.52;0.52;;;21.00;90.70;;;;;;4720895;30;20074;-78
2022/10/29 11:35:29;;;;;;;1.27;1.10;;;21.00;90.10;;;;;;4720735;30;20054;-77
2022/10/29 12:08:38;;;;;;;0.17;0.17;;;22.30;79.60;;;;;;5235228;24;20060;-83
2022/10/29 12:11:04;;;;;;;2.85;2.60;;;22.40;79.00;;;;;;4706463;30;20072;-80
2022/10/29 12:13:50;;;;;;;0.10;0.10;;;22.60;78.50;;;;;;4706370;30;20029;-79
2022/10/29 12:16:23;;;;;;;0.35;0.35;;;22.80;77.80;;;;;;4705629;30;20521;-78
2022/10/29 12:19:17;;;;;;;0.10;0.10;;;22.90;76.70;;;;;;4705471;30;20518;-77
2022/10/29 12:22:17;;;;;;;0.35;0.30;;;23.10;75.30;;;;;;4685154;30;20050;-79
2022/10/29 12:24:57;;;;;;;0.22;0.22;;;23.30;73.80;;;;;;4670361;30;20033;-82
2022/10/29 12:27:34;;;;;;;0.35;0.35;;;23.50;72.70;;;;;;4684720;30;20380;-78
2022/10/29 12:30:08;;;;;;;0.60;0.60;;;23.40;73.40;;;;;;4668137;30;20038;-83
2022/10/29 12:32:56;;;;;;;0.10;0.10;;;23.70;73.80;;;;;;4668162;30;20030;-77
2022/10/29 12:35:27;;;;;;;0.10;0.10;;;23.80;71.70;;;;;;4667809;30;20085;-80
2022/10/29 12:54:29;;;;;;;0.47;0.47;;;24.40;72.40;;;;;;5133439;24;20456;-80
2022/10/29 12:57:01;;;;;;;0.65;0.65;;;24.60;72.70;;;;;;4705212;30;20147;-78
2022/10/29 12:59:31;;;;;;;0.52;0.52;;;24.40;72.30;;;;;;4689750;30;20033;-81
2022/10/29 13:02:27;;;;;;;0.55;0.55;;;24.60;72.50;;;;;;4705343;30;20033;-87
2022/10/29 13:05:04;;;;;;;2.83;2.30;;;24.60;71.30;;;;;;4704194;30;20091;-86
2022/10/29 13:07:31;;;;;;;0.35;0.35;;;24.60;71.60;;;;;;4704356;30;20342;-82
2022/10/29 13:10:25;;;;;;;3.38;3.08;;;24.50;71.50;;;;;;4705562;30;20078;-80
2022/10/29 13:13:12;;;;;;;8.43;0.93;;;24.90;72.10;;;;;;4704049;30;20137;-78
2022/10/29 13:16:12;;;;;;;1.00;1.00;;;24.60;71.10;;;;;;4703115;30;20549;-85
2022/10/29 13:19:03;;;;;;;0.43;0.43;;;24.50;70.30;;;;;;4704070;30;20032;-77
2022/10/29 13:21:55;;;;;;;0.10;0.10;;;24.50;70.70;;;;;;4705661;30;20647;-80
2022/10/29 13:24:21;;;;;;;0.45;0.45;;;24.50;70.60;;;;;;4705639;30;20384;-84
2022/10/29 13:27:08;;;;;;;0.28;0.28;;;24.60;70.60;;;;;;4705952;30;20112;-81
2022/10/29 13:30:03;;;;;;;0.20;0.20;;;24.80;69.50;;;;;;4706795;30;20033;-83
2022/10/29 13:32:36;;;;;;;0.90;0.90;;;24.80;69.00;;;;;;4711802;30;20033;-79
2022/10/29 13:35:23;;;;;;;0.55;0.55;;;24.90;69.20;;;;;;4713281;30;20334;-81
2022/10/29 13:37:53;;;;;;;0.10;0.10;;;23.50;68.20;;;;;;4714370;30;20091;-78
2022/10/29 13:40:22;;;;;;;0.20;0.20;;;25.50;68.40;;;;;;4714785;30;20034;-84
2022/10/29 13:43:17;;;;;;;0.60;0.60;;;26.40;68.60;;;;;;4707768;30;20063;-83
2022/10/29 13:45:49;;;;;;;0.10;0.10;;;26.10;66.80;;;;;;4707049;30;20435;-77
2022/10/29 13:48:29;;;;;;;0.70;0.60;;;26.30;66.60;;;;;;4706532;30;20033;-79
2022/10/29 13:50:57;;;;;;;2.85;2.63;;;26.60;65.50;;;;;;4705132;30;20410;-81
2022/10/29 13:53:47;;;;;;;0.20;0.20;;;26.70;64.80;;;;;;4703781;30;20593;-83
2022/10/29 13:56:19;;;;;;;0.43;0.43;;;27.00;65.40;;;;;;4702299;30;20088;-77
2022/10/29 13:58:50;;;;;;;0.55;0.43;;;27.00;64.60;;;;;;4704366;30;20029;-78
2022/10/29 14:01:20;;;;;;;3.80;3.00;;;27.30;63.00;;;;;;4704197;30;20033;-80
2022/10/29 14:04:12;;;;;;;0.32;0.30;;;27.20;63.80;;;;;;4704036;30;20033;-78
2022/10/29 14:06:40;;;;;;;0.30;0.30;;;27.50;57.90;;;;;;4703934;30;20053;-80
2022/10/29 14:09:22;;;;;;;0.30;0.30;;;27.50;58.70;;;;;;4703994;30;20028;-77
2022/10/29 14:12:00;;;;;;;0.22;0.22;;;27.60;57.50;;;;;;4703399;30;20549;-78
2022/10/29 14:14:52;;;;;;;0.00;0.00;;;27.60;56.90;;;;;;4701832;30;20047;-77
2022/10/29 14:17:18;;;;;;;0.28;0.28;;;27.60;57.90;;;;;;4701151;30;20533;-78
2022/10/29 14:19:48;;;;;;;2.17;1.30;;;27.90;57.50;;;;;;4704043;30;20092;-77
2022/10/29 14:22:29;;;;;;;6.13;3.85;;;27.40;59.70;;;;;;4703504;30;20033;-77
2022/10/29 14:24:56;;;;;;;4.50;3.25;;;27.30;60.20;;;;;;4704437;30;20041;-79
2022/10/29 14:27:22;;;;;;;4.65;4.25;;;;;;;;;;4703906;30;20037;-78
2022/10/29 14:29:48;;;;;;;2.28;2.08;;;27.40;60.60;;;;;;4704024;30;20032;-82
2022/10/29 14:32:18;;;;;;;8.50;2.08;;;27.50;62.00;;;;;;4708235;30;20037;-78
2022/10/29 14:34:47;;;;;;;1.92;1.77;;;27.30;61.30;;;;;;4703741;30;20040;-80
2022/10/29 14:37:33;;;;;;;1.98;1.77;;;27.20;61.50;;;;;;4702093;30;20496;-78
2022/10/29 14:40:02;;;;;;;11.35;3.25;;;26.90;61.30;;;;;;4702777;30;20116;-77
2022/10/29 14:42:34;;;;;;;3.83;2.72;;;27.60;62.40;;;;;;4702963;30;20039;-79
2022/10/29 14:45:04;;;;;;;2.60;1.90;;;26.80;61.70;;;;;;4703738;30;20053;-77
2022/10/29 14:47:37;;;;;;;8.40;2.70;;;26.40;62.30;;;;;;4703638;30;20254;-77
2022/10/29 14:50:13;;;;;;;2.50;2.23;;;28.20;64.00;;;;;;4703236;30;20032;-78
2022/10/29 14:52:44;;;;;;;4.47;2.42;;;26.30;62.70;;;;;;4703469;30;20271;-82
2022/10/29 14:55:16;;;;;;;3.72;3.13;;;26.50;63.30;;;;;;4703293;30;20067;-77
2022/10/29 14:57:46;;;;;;;2.35;2.17;;;26.10;64.50;;;;;;4702616;30;20048;-78
2022/10/29 15:00:30;;;;;;;3.65;3.25;;;25.40;64.10;;;;;;4703164;30;20029;-78
2022/10/29 15:02:56;;;;;;;0.80;0.75;;;25.10;65.20;;;;;;4703212;30;20719;-79
2022/10/29 15:05:24;;;;;;;2.13;1.92;;;24.70;66.30;;;;;;4702981;30;20533;-78
2022/10/29 15:07:50;;;;;;;1.50;1.40;;;25.20;68.40;;;;;;4703566;30;20060;-77
2022/10/29 15:10:19;;;;;;;1.10;1.00;;;23.80;68.40;;;;;;4702910;30;20033;-82
2022/10/29 15:12:45;;;;;;;0.63;0.60;;;23.30;70.00;;;;;;4702749;30;20057;-80
2022/10/29 15:15:17;;;;;;;1.52;1.42;;;23.00;70.40;;;;;;4703066;30;20025;-80
2022/10/29 15:18:15;;;;;;;0.57;0.57;;;22.40;72.00;;;;;;4703795;30;20274;-84
2022/10/29 15:20:41;;;;;;;0.35;0.35;;;21.70;73.00;;;;;;4702545;30;20037;-78
2022/10/29 15:23:25;;;;;;;0.22;0.22;;;21.30;74.70;;;;;;4702866;30;20490;-78